sensor_id;sensor_type;location;lat;lon;timestamp;P1;P2;P0
74430;PMS7003;62863;52.062;23.764;2023-11-18T00:00:48;5;5;4.6
74430;PMS7003;62863;52.062;23.764;2023-11-18T00:05:54;5.8;4.8;4.4
74430;PMS7003;62863;52.062;23.764;2023-11-18T00:10:36;7.6;6;4
74430;PMS7003;62863;52.062;23.764;2023-11-18T00:15:52;4.8;4.2;3.2
74430;PMS7003;62863;52.062;23.764;2023-11-18T00:20:36;7.6;6;4.2
74430;PMS7003;62863;52.062;23.764;2023-11-18T00:25:44;6.6;5.6;4.8
74430;PMS7003;62863;52.062;23.764;2023-11-18T00:31:00;9.2;6;4.2
74430;PMS7003;62863;52.062;23.764;2023-11-18T00:35:46;8.4;6.6;4.6
74430;PMS7003;62863;52.062;23.764;2023-11-18T00:41:05;8.3;6.8;4
74430;PMS7003;62863;52.062;23.764;2023-11-18T00:46:06;7.2;5.2;3.6
74430;PMS7003;62863;52.062;23.764;2023-11-18T00:50:54;8;6.6;4
74430;PMS7003;62863;52.062;23.764;2023-11-18T00:55:52;10;8;4.8
74430;PMS7003;62863;52.062;23.764;2023-11-18T01:00:38;8.8;7.2;5.4
74430;PMS7003;62863;52.062;23.764;2023-11-18T01:05:54;8.4;6.4;4.4
74430;PMS7003;62863;52.062;23.764;2023-11-18T01:10:38;8.8;7;4.6
74430;PMS7003;62863;52.062;23.764;2023-11-18T01:15:44;8.4;7.2;4.4
74430;PMS7003;62863;52.062;23.764;2023-11-18T01:21:05;11.8;8.6;6.2
74430;PMS7003;62863;52.062;23.764;2023-11-18T01:25:36;8.2;7.2;4.8
74430;PMS7003;62863;52.062;23.764;2023-11-18T01:31:06;8;6;4
74430;PMS7003;62863;52.062;23.764;2023-11-18T01:36:08;8.4;7.6;5.4
74430;PMS7003;62863;52.062;23.764;2023-11-18T01:40:52;10.3;8;4.8
74430;PMS7003;62863;52.062;23.764;2023-11-18T01:45:54;8.6;6.4;4.4
74430;PMS7003;62863;52.062;23.764;2023-11-18T01:50:38;8.8;6.8;5.2
74430;PMS7003;62863;52.062;23.764;2023-11-18T01:55:44;8;7.6;4.4
74430;PMS7003;62863;52.062;23.764;2023-11-18T02:00:36;9.6;7;5.2
74430;PMS7003;62863;52.062;23.764;2023-11-18T02:05:36;6;5.8;3.6
74430;PMS7003;62863;52.062;23.764;2023-11-18T02:11:10;8.2;6.8;4.8
74430;PMS7003;62863;52.062;23.764;2023-11-18T02:15:36;7.4;5.8;3.8
74430;PMS7003;62863;52.062;23.764;2023-11-18T02:21:08;7.6;6.4;4.6
74430;PMS7003;62863;52.062;23.764;2023-11-18T02:26:08;9.4;7;4.8
74430;PMS7003;62863;52.062;23.764;2023-11-18T02:30:54;8;6.6;5.4
74430;PMS7003;62863;52.062;23.764;2023-11-18T02:35:58;9.2;7.4;5.6
74430;PMS7003;62863;52.062;23.764;2023-11-18T02:40:44;9.3;7;5
74430;PMS7003;62863;52.062;23.764;2023-11-18T02:45:36;9.8;7.6;5
74430;PMS7003;62863;52.062;23.764;2023-11-18T02:50:58;10.6;8.2;5.2
74430;PMS7003;62863;52.062;23.764;2023-11-18T02:55:36;8.6;7;4.4
74430;PMS7003;62863;52.062;23.764;2023-11-18T03:00:48;9.8;8.4;5.8
74430;PMS7003;62863;52.062;23.764;2023-11-18T03:05:50;11;8.4;6.2
74430;PMS7003;62863;52.062;23.764;2023-11-18T03:11:08;6.8;6.8;4.6
74430;PMS7003;62863;52.062;23.764;2023-11-18T03:15:52;8.6;7.4;5.2
74430;PMS7003;62863;52.062;23.764;2023-11-18T03:21:10;10;7;4.6
74430;PMS7003;62863;52.062;23.764;2023-11-18T03:26:08;8.2;7.4;5
74430;PMS7003;62863;52.062;23.764;2023-11-18T03:30:36;10.4;9;6.2
74430;PMS7003;62863;52.062;23.764;2023-11-18T03:35:42;9.4;7.8;4.8
74430;PMS7003;62863;52.062;23.764;2023-11-18T03:40:48;6.5;5.8;4.5
74430;PMS7003;62863;52.062;23.764;2023-11-18T03:45:44;7.4;6.2;3.8
74430;PMS7003;62863;52.062;23.764;2023-11-18T03:51:01;10.4;7.2;5.2
74430;PMS7003;62863;52.062;23.764;2023-11-18T03:55:50;9.4;7.2;5.2
74430;PMS7003;62863;52.062;23.764;2023-11-18T04:01:06;8.8;6.2;3.8
74430;PMS7003;62863;52.062;23.764;2023-11-18T04:05:58;7.6;6.2;4.2
74430;PMS7003;62863;52.062;23.764;2023-11-18T04:11:08;9;8.2;5.2
74430;PMS7003;62863;52.062;23.764;2023-11-18T04:16:06;7;5.8;4
74430;PMS7003;62863;52.062;23.764;2023-11-18T04:20:40;7.6;6;5
74430;PMS7003;62863;52.062;23.764;2023-11-18T04:25:44;7.8;7.8;4.6
74430;PMS7003;62863;52.062;23.764;2023-11-18T04:30:36;10.8;7.6;5
74430;PMS7003;62863;52.062;23.764;2023-11-18T04:35:40;9.8;8.2;5
74430;PMS7003;62863;52.062;23.764;2023-11-18T04:41:00;9.3;8;6
74430;PMS7003;62863;52.062;23.764;2023-11-18T04:45:44;11.6;8.6;5.6
74430;PMS7003;62863;52.062;23.764;2023-11-18T04:51:08;11;8.8;5.4
74430;PMS7003;62863;52.062;23.764;2023-11-18T04:55:58;10.6;8.2;4.6
74430;PMS7003;62863;52.062;23.764;2023-11-18T05:01:06;10.6;9;6.4
74430;PMS7003;62863;52.062;23.764;2023-11-18T05:06:08;8;6.8;5
74430;PMS7003;62863;52.062;23.764;2023-11-18T05:10:38;14.2;11.6;6.6
74430;PMS7003;62863;52.062;23.764;2023-11-18T05:15:42;11;10;6.2
74430;PMS7003;62863;52.062;23.764;2023-11-18T05:20:36;13.4;11.2;7.8
74430;PMS7003;62863;52.062;23.764;2023-11-18T05:25:36;13;10;7
74430;PMS7003;62863;52.062;23.764;2023-11-18T05:31:08;15.8;14.2;9.4
74430;PMS7003;62863;52.062;23.764;2023-11-18T05:35:48;15.2;14;8.4
74430;PMS7003;62863;52.062;23.764;2023-11-18T05:41:08;17.2;13.6;9
74430;PMS7003;62863;52.062;23.764;2023-11-18T05:45:58;17.5;13.8;8.5
74430;PMS7003;62863;52.062;23.764;2023-11-18T05:51:08;15.4;12.8;8.2
74430;PMS7003;62863;52.062;23.764;2023-11-18T05:56:08;16;14.8;9
74430;PMS7003;62863;52.062;23.764;2023-11-18T06:00:46;15;13.2;8.4
74430;PMS7003;62863;52.062;23.764;2023-11-18T06:05:42;15.6;13.6;8.4
74430;PMS7003;62863;52.062;23.764;2023-11-18T06:10:46;18;13;9.4
74430;PMS7003;62863;52.062;23.764;2023-11-18T06:15:52;16;13.6;9
74430;PMS7003;62863;52.062;23.764;2023-11-18T06:21:00;16.6;14.6;9.2
74430;PMS7003;62863;52.062;23.764;2023-11-18T06:25:36;17.4;13;9.2
74430;PMS7003;62863;52.062;23.764;2023-11-18T06:30:54;14.2;14;9
74430;PMS7003;62863;52.062;23.764;2023-11-18T06:35:58;17.8;15.2;9
74430;PMS7003;62863;52.062;23.764;2023-11-18T06:40:38;16.8;13.6;9
74430;PMS7003;62863;52.062;23.764;2023-11-18T06:46:08;15.8;15.3;10.5
74430;PMS7003;62863;52.062;23.764;2023-11-18T06:50:44;16.2;13.6;9
74430;PMS7003;62863;52.062;23.764;2023-11-18T06:55:38;16.2;12.8;8.8
74430;PMS7003;62863;52.062;23.764;2023-11-18T07:00:38;15.6;12.8;8.8
74430;PMS7003;62863;52.062;23.764;2023-11-18T07:05:36;20.4;16;10.2
74430;PMS7003;62863;52.062;23.764;2023-11-18T07:10:46;14;13;8.6
74430;PMS7003;62863;52.062;23.764;2023-11-18T07:15:34;17;13.8;8.8
74430;PMS7003;62863;52.062;23.764;2023-11-18T07:20:34;15.6;14.4;9.2
74430;PMS7003;62863;52.062;23.764;2023-11-18T07:26:00;14.8;13.4;8.4
74430;PMS7003;62863;52.062;23.764;2023-11-18T07:31:07;16.4;13.4;9.2
74430;PMS7003;62863;52.062;23.764;2023-11-18T07:36:08;18.8;15.6;9
74430;PMS7003;62863;52.062;23.764;2023-11-18T07:40:44;13;12.4;9
74430;PMS7003;62863;52.062;23.764;2023-11-18T07:45:44;18.5;16;10.3
74430;PMS7003;62863;52.062;23.764;2023-11-18T07:50:54;18.2;15;10.2
74430;PMS7003;62863;52.062;23.764;2023-11-18T07:55:36;15.8;13.8;8.6
74430;PMS7003;62863;52.062;23.764;2023-11-18T08:01:00;18.2;16.8;10.8
74430;PMS7003;62863;52.062;23.764;2023-11-18T08:05:52;16.4;14.4;9.2
74430;PMS7003;62863;52.062;23.764;2023-11-18T08:11:06;18.4;15;10.8
74430;PMS7003;62863;52.062;23.764;2023-11-18T08:16:00;16;12.8;9
74430;PMS7003;62863;52.062;23.764;2023-11-18T08:20:56;15.2;13.8;8.2
74430;PMS7003;62863;52.062;23.764;2023-11-18T08:26:06;14;12.8;8.6
74430;PMS7003;62863;52.062;23.764;2023-11-18T08:30:37;13.8;12.8;8.8
74430;PMS7003;62863;52.062;23.764;2023-11-18T08:35:36;17.2;13.6;9.4
74430;PMS7003;62863;52.062;23.764;2023-11-18T08:40:48;18.8;16.2;9.6
74430;PMS7003;62863;52.062;23.764;2023-11-18T08:45:36;19.8;17.5;11
74430;PMS7003;62863;52.062;23.764;2023-11-18T08:51:10;19.8;15;10.6
74430;PMS7003;62863;52.062;23.764;2023-11-18T08:55:50;15.8;13.2;10.4
74430;PMS7003;62863;52.062;23.764;2023-11-18T09:01:06;14.2;11.6;7.6
74430;PMS7003;62863;52.062;23.764;2023-11-18T09:05:58;13.8;12.2;8.4
74430;PMS7003;62863;52.062;23.764;2023-11-18T09:11:09;14.8;13.6;9.2
74430;PMS7003;62863;52.062;23.764;2023-11-18T09:16:08;20;17.6;11.8
74430;PMS7003;62863;52.062;23.764;2023-11-18T09:20:42;20.4;17.8;13.2
74430;PMS7003;62863;52.062;23.764;2023-11-18T09:25:36;24.8;23;16
74430;PMS7003;62863;52.062;23.764;2023-11-18T09:30:50;22;17;12.4
74430;PMS7003;62863;52.062;23.764;2023-11-18T09:35:36;19;17.2;12.8
74430;PMS7003;62863;52.062;23.764;2023-11-18T09:40:51;20;16.6;11
74430;PMS7003;62863;52.062;23.764;2023-11-18T09:45:43;16.5;14.8;10.8
74430;PMS7003;62863;52.062;23.764;2023-11-18T09:50:52;15.4;14;10
74430;PMS7003;62863;52.062;23.764;2023-11-18T09:55:59;15;14;9
74430;PMS7003;62863;52.062;23.764;2023-11-18T10:01:06;18.4;15.4;9.4
74430;PMS7003;62863;52.062;23.764;2023-11-18T10:06:10;18;14.8;10
74430;PMS7003;62863;52.062;23.764;2023-11-18T10:10:36;20;16.6;11.4
74430;PMS7003;62863;52.062;23.764;2023-11-18T10:15:42;22.6;17.8;13
74430;PMS7003;62863;52.062;23.764;2023-11-18T10:20:44;21.2;18.6;12.6
74430;PMS7003;62863;52.062;23.764;2023-11-18T10:25:43;20.8;17.6;11.8
74430;PMS7003;62863;52.062;23.764;2023-11-18T10:30:59;21.8;18;11.8
74430;PMS7003;62863;52.062;23.764;2023-11-18T10:35:51;21.2;18.4;13.6
74430;PMS7003;62863;52.062;23.764;2023-11-18T10:41:08;20;14.8;10.4
74430;PMS7003;62863;52.062;23.764;2023-11-18T10:45:48;18.4;16.4;12
74430;PMS7003;62863;52.062;23.764;2023-11-18T10:51:09;20.3;16.5;11
74430;PMS7003;62863;52.062;23.764;2023-11-18T10:56:06;17.4;14.2;10.2
74430;PMS7003;62863;52.062;23.764;2023-11-18T11:00:46;18.4;15.6;11.2
74430;PMS7003;62863;52.062;23.764;2023-11-18T11:05:36;19.8;19.2;13.4
74430;PMS7003;62863;52.062;23.764;2023-11-18T11:10:36;19.4;17.8;12
74430;PMS7003;62863;52.062;23.764;2023-11-18T11:15:40;21.2;19.4;14
74430;PMS7003;62863;52.062;23.764;2023-11-18T11:20:39;20;16.8;11.5
74430;PMS7003;62863;52.062;23.764;2023-11-18T11:25:38;24.6;20.6;13
74430;PMS7003;62863;52.062;23.764;2023-11-18T11:30:58;23.8;19;13.6
74430;PMS7003;62863;52.062;23.764;2023-11-18T11:36:00;23.6;19.8;14.2
74430;PMS7003;62863;52.062;23.764;2023-11-18T11:41:06;25.2;21.6;15
74430;PMS7003;62863;52.062;23.764;2023-11-18T11:46:06;24.6;22.2;16
74430;PMS7003;62863;52.062;23.764;2023-11-18T11:51:00;25.8;22.5;16
74430;PMS7003;62863;52.062;23.764;2023-11-18T11:55:45;27.6;25.6;16.2
74430;PMS7003;62863;52.062;23.764;2023-11-18T12:00:44;24.6;21.4;14.6
74430;PMS7003;62863;52.062;23.764;2023-11-18T12:05:48;23.8;21;14.6
74430;PMS7003;62863;52.062;23.764;2023-11-18T12:11:08;23.8;19.6;14.6
74430;PMS7003;62863;52.062;23.764;2023-11-18T12:15:49;23.8;19.4;13.4
74430;PMS7003;62863;52.062;23.764;2023-11-18T12:20:43;22.6;18;13.6
74430;PMS7003;62863;52.062;23.764;2023-11-18T12:26:00;24.8;19;13.2
74430;PMS7003;62863;52.062;23.764;2023-11-18T12:30:57;21;17.4;12.6
74430;PMS7003;62863;52.062;23.764;2023-11-18T12:36:24;23;19;12.2
74430;PMS7003;62863;52.062;23.764;2023-11-18T12:40:58;20.2;16.8;11.2
74430;PMS7003;62863;52.062;23.764;2023-11-18T12:45:59;24.2;20.6;12.6
74430;PMS7003;62863;52.062;23.764;2023-11-18T12:50:36;22.8;18.8;12.8
74430;PMS7003;62863;52.062;23.764;2023-11-18T12:55:50;24.2;21.4;14.2
74430;PMS7003;62863;52.062;23.764;2023-11-18T13:01:08;23.4;18;13.4
74430;PMS7003;62863;52.062;23.764;2023-11-18T13:05:36;22.6;18.6;13
74430;PMS7003;62863;52.062;23.764;2023-11-18T13:10:48;26.8;21.4;14.2
74430;PMS7003;62863;52.062;23.764;2023-11-18T13:15:58;25.8;22;13.6
74430;PMS7003;62863;52.062;23.764;2023-11-18T13:20:56;23.6;19.6;14
74430;PMS7003;62863;52.062;23.764;2023-11-18T13:26:08;22;20.2;13.6
74430;PMS7003;62863;52.062;23.764;2023-11-18T13:30:56;22.8;20.6;13
74430;PMS7003;62863;52.062;23.764;2023-11-18T13:35:36;27.2;23;15
74430;PMS7003;62863;52.062;23.764;2023-11-18T13:40:42;26.2;23;16.2
74430;PMS7003;62863;52.062;23.764;2023-11-18T13:45:56;28.6;25.8;17.4
74430;PMS7003;62863;52.062;23.764;2023-11-18T13:51:09;25;22.3;15.8
74430;PMS7003;62863;52.062;23.764;2023-11-18T13:55:39;27.4;24.2;17.4
74430;PMS7003;62863;52.062;23.764;2023-11-18T14:00:46;29.8;22.6;16.8
74430;PMS7003;62863;52.062;23.764;2023-11-18T14:06:00;26.2;22.2;16.4
74430;PMS7003;62863;52.062;23.764;2023-11-18T14:10:56;38.4;31.2;20.4
74430;PMS7003;62863;52.062;23.764;2023-11-18T14:16:08;28.8;25.6;16.6
74430;PMS7003;62863;52.062;23.764;2023-11-18T14:20:56;25.6;22.4;15
74430;PMS7003;62863;52.062;23.764;2023-11-18T14:25:38;24.2;21.2;14.6
74430;PMS7003;62863;52.062;23.764;2023-11-18T14:30:38;28.8;26;15.6
74430;PMS7003;62863;52.062;23.764;2023-11-18T14:35:36;28.2;23.6;16.6
74430;PMS7003;62863;52.062;23.764;2023-11-18T14:41:08;26;21;15
74430;PMS7003;62863;52.062;23.764;2023-11-18T14:45:50;24.6;22.8;15.4
74430;PMS7003;62863;52.062;23.764;2023-11-18T14:50:48;25.5;22;15.3
74430;PMS7003;62863;52.062;23.764;2023-11-18T14:55:56;24;22.2;15
74430;PMS7003;62863;52.062;23.764;2023-11-18T15:00:54;28.8;24.6;15.8
74430;PMS7003;62863;52.062;23.764;2023-11-18T15:06:08;28.6;25.8;16.6
74430;PMS7003;62863;52.062;23.764;2023-11-18T15:10:56;26.8;22.2;13.6
74430;PMS7003;62863;52.062;23.764;2023-11-18T15:15:38;26.8;22.6;16
74430;PMS7003;62863;52.062;23.764;2023-11-18T15:20:39;25.4;20.2;14
74430;PMS7003;62863;52.062;23.764;2023-11-18T15:25:39;28.8;24.8;17.2
74430;PMS7003;62863;52.062;23.764;2023-11-18T15:31:08;27.6;22;15.8
74430;PMS7003;62863;52.062;23.764;2023-11-18T15:35:42;25.6;22;13.4
74430;PMS7003;62863;52.062;23.764;2023-11-18T15:40:38;23.8;21;13.8
74430;PMS7003;62863;52.062;23.764;2023-11-18T15:45:58;29.6;24.8;16
74430;PMS7003;62863;52.062;23.764;2023-11-18T15:50:56;32;23.5;15.3
74430;PMS7003;62863;52.062;23.764;2023-11-18T15:56:08;25.2;22.4;15.4
74430;PMS7003;62863;52.062;23.764;2023-11-18T16:00:56;26.2;22.4;15
74430;PMS7003;62863;52.062;23.764;2023-11-18T16:05:36;23.4;20;14.4
74430;PMS7003;62863;52.062;23.764;2023-11-18T16:11:00;28;23.6;15.6
74430;PMS7003;62863;52.062;23.764;2023-11-18T16:15:50;25;20.6;14
74430;PMS7003;62863;52.062;23.764;2023-11-18T16:21:08;27.4;22.4;15.4
74430;PMS7003;62863;52.062;23.764;2023-11-18T16:25:58;28;22.8;15.4
74430;PMS7003;62863;52.062;23.764;2023-11-18T16:30:36;28;23.6;14.4
74430;PMS7003;62863;52.062;23.764;2023-11-18T16:36:00;24.4;21.4;13.8
74430;PMS7003;62863;52.062;23.764;2023-11-18T16:40:36;24.8;22.6;15.6
74430;PMS7003;62863;52.062;23.764;2023-11-18T16:46:06;27.4;20.6;14.6
74430;PMS7003;62863;52.062;23.764;2023-11-18T16:50:38;23.4;21;14.6
74430;PMS7003;62863;52.062;23.764;2023-11-18T16:55:38;22.3;20.3;14
74430;PMS7003;62863;52.062;23.764;2023-11-18T17:00:44;22.8;19.2;12.4
74430;PMS7003;62863;52.062;23.764;2023-11-18T17:05:50;22.6;20.6;12.6
74430;PMS7003;62863;52.062;23.764;2023-11-18T17:11:08;17.6;16.2;11.6
74430;PMS7003;62863;52.062;23.764;2023-11-18T17:16:00;19.2;18.2;12.2
74430;PMS7003;62863;52.062;23.764;2023-11-18T17:20:48;25.8;20.2;13.2
74430;PMS7003;62863;52.062;23.764;2023-11-18T17:26:00;23.8;19.4;13.2
74430;PMS7003;62863;52.062;23.764;2023-11-18T17:30:42;23.6;18.6;11.6
74430;PMS7003;62863;52.062;23.764;2023-11-18T17:36:07;22.2;20;13
74430;PMS7003;62863;52.062;23.764;2023-11-18T17:40:36;20.7;19.7;12.7
74430;PMS7003;62863;52.062;23.764;2023-11-18T17:45:42;22.4;18.8;12
74430;PMS7003;62863;52.062;23.764;2023-11-18T17:50:50;19.5;17.5;13.3
74430;PMS7003;62863;52.062;23.764;2023-11-18T17:55:50;24.2;18.4;11.8
74430;PMS7003;62863;52.062;23.764;2023-11-18T18:01:08;21.8;17.6;12.4
74430;PMS7003;62863;52.062;23.764;2023-11-18T18:05:56;19.6;16.4;10.6
74430;PMS7003;62863;52.062;23.764;2023-11-18T18:10:37;19.2;18.6;12.2
74430;PMS7003;62863;52.062;23.764;2023-11-18T18:15:38;22.4;17.8;11.6
74430;PMS7003;62863;52.062;23.764;2023-11-18T18:21:10;21.4;19;12.6
74430;PMS7003;62863;52.062;23.764;2023-11-18T18:26:08;19.6;16.4;11.2
74430;PMS7003;62863;52.062;23.764;2023-11-18T18:30:46;17.6;15.8;11.8
74430;PMS7003;62863;52.062;23.764;2023-11-18T18:35:52;16.6;16;11
74430;PMS7003;62863;52.062;23.764;2023-11-18T18:40:46;18.8;17.8;12.2
74430;PMS7003;62863;52.062;23.764;2023-11-18T18:45:46;20.2;18.4;12.2
74430;PMS7003;62863;52.062;23.764;2023-11-18T18:51:08;21.3;14;11.5
74430;PMS7003;62863;52.062;23.764;2023-11-18T18:55:58;19.2;17.2;12.8
74430;PMS7003;62863;52.062;23.764;2023-11-18T19:00:46;22.8;19.6;12.8
74430;PMS7003;62863;52.062;23.764;2023-11-18T19:05:37;21;18.4;12.6
74430;PMS7003;62863;52.062;23.764;2023-11-18T19:10:58;23.6;20.8;13.8
74430;PMS7003;62863;52.062;23.764;2023-11-18T19:16:09;24.8;19.2;12.8
74430;PMS7003;62863;52.062;23.764;2023-11-18T19:20:40;20.2;17.6;12.2
74430;PMS7003;62863;52.062;23.764;2023-11-18T19:25:46;22.2;19.8;14
74430;PMS7003;62863;52.062;23.764;2023-11-18T19:31:00;22.4;20.8;14.4
74430;PMS7003;62863;52.062;23.764;2023-11-18T19:35:38;27.2;21.6;16.2
74430;PMS7003;62863;52.062;23.764;2023-11-18T19:41:08;19;18.6;13
74430;PMS7003;62863;52.062;23.764;2023-11-18T19:45:37;21.6;18.6;13.2
74430;PMS7003;62863;52.062;23.764;2023-11-18T19:50:47;19.5;17.8;12.5
74430;PMS7003;62863;52.062;23.764;2023-11-18T19:56:00;26.6;23;15.8
74430;PMS7003;62863;52.062;23.764;2023-11-18T20:00:55;29.8;24;16
74430;PMS7003;62863;52.062;23.764;2023-11-18T20:06:11;25.2;20.4;14.6
74430;PMS7003;62863;52.062;23.764;2023-11-18T20:10:36;21.6;18.6;14
74430;PMS7003;62863;52.062;23.764;2023-11-18T20:15:36;22.2;20;12.6
74430;PMS7003;62863;52.062;23.764;2023-11-18T20:20:37;26.8;24.4;16.2
74430;PMS7003;62863;52.062;23.764;2023-11-18T20:25:51;27.2;22.4;15.6
74430;PMS7003;62863;52.062;23.764;2023-11-18T20:31:08;27.2;24.6;16.8
74430;PMS7003;62863;52.062;23.764;2023-11-18T20:35:37;26.8;23.2;15.2
74430;PMS7003;62863;52.062;23.764;2023-11-18T20:40:37;23.6;19.6;13.4
74430;PMS7003;62863;52.062;23.764;2023-11-18T20:45:59;24;19.8;13.8
74430;PMS7003;62863;52.062;23.764;2023-11-18T20:51:09;23.3;21.3;15
74430;PMS7003;62863;52.062;23.764;2023-11-18T20:55:45;23;20.2;13
74430;PMS7003;62863;52.062;23.764;2023-11-18T21:00:37;24.2;22;14.2
74430;PMS7003;62863;52.062;23.764;2023-11-18T21:05:37;21.2;18.6;13
74430;PMS7003;62863;52.062;23.764;2023-11-18T21:10:59;24.6;20.8;14.8
74430;PMS7003;62863;52.062;23.764;2023-11-18T21:16:09;21.8;17.8;13.8
74430;PMS7003;62863;52.062;23.764;2023-11-18T21:20:57;25.4;20.2;14
74430;PMS7003;62863;52.062;23.764;2023-11-18T21:25:55;27;22.6;15.6
74430;PMS7003;62863;52.062;23.764;2023-11-18T21:30:37;22.2;20.4;13.4
74430;PMS7003;62863;52.062;23.764;2023-11-18T21:35:55;25;22.4;15.6
74430;PMS7003;62863;52.062;23.764;2023-11-18T21:41:09;24.4;21.4;16
74430;PMS7003;62863;52.062;23.764;2023-11-18T21:45:45;24;20.2;14.4
74430;PMS7003;62863;52.062;23.764;2023-11-18T21:50:37;21.4;18.6;13.4
74430;PMS7003;62863;52.062;23.764;2023-11-18T21:55:53;20;18.5;14
74430;PMS7003;62863;52.062;23.764;2023-11-18T22:00:57;20;17.8;13.6
74430;PMS7003;62863;52.062;23.764;2023-11-18T22:06:09;20;16.6;12.2
74430;PMS7003;62863;52.062;23.764;2023-11-18T22:10:57;19.2;16.8;11.8
74430;PMS7003;62863;52.062;23.764;2023-11-18T22:15:55;21.6;19.2;13.2
74430;PMS7003;62863;52.062;23.764;2023-11-18T22:20:45;22.8;19.8;13.4
74430;PMS7003;62863;52.062;23.764;2023-11-18T22:25:37;19.2;17.4;13.4
74430;PMS7003;62863;52.062;23.764;2023-11-18T22:31:09;24.4;20.2;14.2
74430;PMS7003;62863;52.062;23.764;2023-11-18T22:35:45;20.2;16;11
74430;PMS7003;62863;52.062;23.764;2023-11-18T22:40:37;19.2;15.8;11
74430;PMS7003;62863;52.062;23.764;2023-11-18T22:45:51;21.6;16.4;11
74430;PMS7003;62863;52.062;23.764;2023-11-18T22:50:59;18;15.8;10.8
74430;PMS7003;62863;52.062;23.764;2023-11-18T22:56:11;20.5;16.8;10.8
74430;PMS7003;62863;52.062;23.764;2023-11-18T23:00:57;18.6;14.8;9.6
74430;PMS7003;62863;52.062;23.764;2023-11-18T23:05:53;19.8;14.8;9.8
74430;PMS7003;62863;52.062;23.764;2023-11-18T23:10:49;17;13.6;9.4
74430;PMS7003;62863;52.062;23.764;2023-11-18T23:15:39;16.8;13.4;9.8
74430;PMS7003;62863;52.062;23.764;2023-11-18T23:21:09;17.6;14.6;10.6
74430;PMS7003;62863;52.062;23.764;2023-11-18T23:25:45;17.6;15;10.2
74430;PMS7003;62863;52.062;23.764;2023-11-18T23:30:39;16.8;13.6;9.4
74430;PMS7003;62863;52.062;23.764;2023-11-18T23:35:49;20.2;15;9.6
74430;PMS7003;62863;52.062;23.764;2023-11-18T23:41:01;17;15;9.8
74430;PMS7003;62863;52.062;23.764;2023-11-18T23:46:11;15.2;12.6;9.4
74430;PMS7003;62863;52.062;23.764;2023-11-18T23:51:01;19;15.2;10.6
74430;PMS7003;62863;52.062;23.764;2023-11-18T23:55:57;15.8;14.3;9.3
